createdAt,value
2022-10-01T00:01:49.763Z,3.83
2022-10-01T00:03:51.478Z,3.03
2022-10-01T00:06:03.516Z,3.70
2022-10-01T00:08:05.343Z,3.65
2022-10-01T00:10:07.827Z,3.33
2022-10-01T00:12:09.347Z,3.58
2022-10-01T00:14:10.846Z,4.45
2022-10-01T00:16:13.309Z,3.35
2022-10-01T00:18:14.810Z,5.10
2022-10-01T00:20:16.400Z,4.13
2022-10-01T00:22:19.070Z,2.97
2022-10-01T00:24:20.733Z,4.88
2022-10-01T00:26:25.555Z,4.82
2022-10-01T00:28:27.112Z,3.85
2022-10-01T00:30:32.188Z,3.88
2022-10-01T00:32:44.004Z,4.82
2022-10-01T00:34:52.989Z,4.53
2022-10-01T00:37:02.127Z,3.85
2022-10-01T00:39:10.558Z,4.57
2022-10-01T00:41:19.414Z,3.78
2022-10-01T00:43:34.551Z,5.00
2022-10-01T00:45:46.423Z,3.25
2022-10-01T00:48:02.385Z,3.97
2022-10-01T00:50:30.296Z,3.63
2022-10-01T00:52:43.852Z,5.05
2022-10-01T00:54:57.052Z,4.25
2022-10-01T00:57:07.941Z,4.57
2022-10-01T00:59:12.306Z,3.58
2022-10-01T01:01:14.054Z,4.03
2022-10-01T01:03:15.671Z,4.57
2022-10-01T01:05:17.833Z,3.70
2022-10-01T01:07:19.865Z,5.35
2022-10-01T01:09:22.718Z,5.47
2022-10-01T01:11:33.417Z,4.50
2022-10-01T01:13:35.288Z,5.25
2022-10-01T01:15:39.802Z,3.92
2022-10-01T01:17:57.761Z,5.03
2022-10-01T01:20:18.082Z,4.10
2022-10-01T01:22:21.712Z,7.13
2022-10-01T01:24:23.836Z,4.85
2022-10-01T01:26:29.517Z,4.80
2022-10-01T01:28:36.056Z,4.93
2022-10-01T01:30:41.225Z,5.65
2022-10-01T01:33:03.332Z,6.78
2022-10-01T01:35:07.529Z,4.10
2022-10-01T01:37:12.066Z,5.13
2022-10-01T01:39:14.859Z,4.60
2022-10-01T01:41:17.215Z,4.45
2022-10-01T01:43:20.931Z,4.07
2022-10-01T01:45:28.807Z,6.22
2022-10-01T01:47:32.948Z,5.85
2022-10-01T01:49:34.685Z,4.43
2022-10-01T01:51:43.079Z,5.53
2022-10-01T01:53:44.720Z,4.80
2022-10-01T01:55:49.364Z,3.53
2022-10-01T01:57:51.511Z,4.18
2022-10-01T01:59:54.150Z,5.28
2022-10-01T02:01:55.856Z,4.28
2022-10-01T02:03:57.500Z,4.97
2022-10-01T02:06:02.089Z,7.60
2022-10-01T02:08:03.815Z,5.30
2022-10-01T02:10:23.774Z,5.28
2022-10-01T02:12:37.336Z,5.50
2022-10-01T02:14:48.441Z,4.43
2022-10-01T02:16:56.151Z,5.70
2022-10-01T02:19:01.698Z,5.35
2022-10-01T02:21:16.043Z,4.80
2022-10-01T02:23:24.213Z,3.38
2022-10-01T02:25:28.751Z,3.95
2022-10-01T02:27:32.758Z,5.18
2022-10-01T02:29:35.226Z,4.55
2022-10-01T02:31:37.131Z,4.57
2022-10-01T02:33:40.074Z,5.75
2022-10-01T02:35:43.479Z,6.20
2022-10-01T02:37:45.986Z,4.05
2022-10-01T02:39:52.822Z,5.50
2022-10-01T02:41:55.717Z,3.92
2022-10-01T02:44:00.207Z,3.45
2022-10-01T02:46:06.982Z,4.22
2022-10-01T02:48:09.975Z,5.55
2022-10-01T02:50:13.033Z,4.93
2022-10-01T02:52:25.374Z,4.47
2022-10-01T02:54:33.907Z,4.07
2022-10-01T02:56:56.277Z,4.65
2022-10-01T02:58:58.186Z,5.40
2022-10-01T03:00:59.753Z,4.70
2022-10-01T03:03:01.264Z,4.32
2022-10-01T03:05:03.379Z,5.18
2022-10-01T03:07:04.948Z,4.13
2022-10-01T03:09:08.813Z,4.68
2022-10-01T03:11:10.570Z,4.45
2022-10-01T03:13:12.139Z,4.20
2022-10-01T03:15:14.819Z,4.00
2022-10-01T03:17:16.560Z,4.40
2022-10-01T03:19:18.150Z,4.55
2022-10-01T03:21:19.626Z,4.15
2022-10-01T03:23:21.084Z,4.35
2022-10-01T03:25:22.867Z,5.03
2022-10-01T03:27:24.298Z,4.78
2022-10-01T03:29:26.393Z,6.65
2022-10-01T03:31:28.081Z,4.65
2022-10-01T03:33:29.809Z,4.95
2022-10-01T03:35:32.334Z,5.03
2022-10-01T03:37:40.896Z,5.00
2022-10-01T03:39:53.461Z,4.45
2022-10-01T03:42:03.312Z,4.40
2022-10-01T03:44:12.879Z,5.22
2022-10-01T03:46:22.503Z,3.95
2022-10-01T03:48:32.562Z,4.97
2022-10-01T03:50:42.262Z,4.07
2022-10-01T03:52:54.866Z,4.65
2022-10-01T03:55:05.014Z,7.03
2022-10-01T03:57:15.417Z,4.45
2022-10-01T03:59:26.602Z,4.28
2022-10-01T04:01:35.980Z,4.00
2022-10-01T04:03:38.181Z,4.28
2022-10-01T04:05:39.899Z,3.72
2022-10-01T04:07:42.118Z,4.75
2022-10-01T04:09:43.827Z,5.15
2022-10-01T04:11:45.370Z,4.20
2022-10-01T04:13:46.913Z,4.80
2022-10-01T04:15:48.884Z,4.82
2022-10-01T04:17:50.518Z,4.50
2022-10-01T04:19:52.086Z,4.60
2022-10-01T04:21:53.596Z,4.15
2022-10-01T04:23:55.150Z,4.30
2022-10-01T04:26:03.123Z,3.83
2022-10-01T04:28:05.930Z,5.10
2022-10-01T04:30:08.557Z,5.32
2022-10-01T04:32:10.145Z,5.20
2022-10-01T04:34:11.675Z,4.28
2022-10-01T04:36:13.261Z,4.45
2022-10-01T04:38:16.421Z,4.63
2022-10-01T04:40:18.065Z,4.20
2022-10-01T04:42:20.326Z,4.68
2022-10-01T04:44:22.074Z,3.58
2022-10-01T04:46:23.699Z,3.97
2022-10-01T04:48:25.372Z,5.68
2022-10-01T04:50:27.225Z,3.92
2022-10-01T04:52:29.116Z,6.60
2022-10-01T04:54:30.698Z,3.58
2022-10-01T04:56:32.176Z,3.65
2022-10-01T04:58:33.661Z,3.45
2022-10-01T05:00:35.691Z,3.95
2022-10-01T05:02:37.892Z,3.55
2022-10-01T05:04:39.567Z,4.57
2022-10-01T05:06:41.499Z,3.28
2022-10-01T05:08:43.063Z,4.28
2022-10-01T05:10:44.702Z,4.35
2022-10-01T05:12:47.252Z,3.40
2022-10-01T05:14:48.884Z,2.83
2022-10-01T05:16:50.443Z,3.33
2022-10-01T05:18:52.036Z,2.78
2022-10-01T05:20:53.516Z,3.55
2022-10-01T05:22:56.560Z,3.80
2022-10-01T05:25:00.238Z,3.75
2022-10-01T05:27:01.859Z,4.10
2022-10-01T05:29:03.679Z,3.33
2022-10-01T05:31:05.439Z,4.32
2022-10-01T05:33:07.084Z,3.25
2022-10-01T05:35:08.949Z,3.88
2022-10-01T05:37:12.030Z,3.03
2022-10-01T05:39:13.638Z,2.90
2022-10-01T05:41:16.210Z,3.97
2022-10-01T05:43:18.749Z,2.50
2022-10-01T05:45:21.051Z,2.85
2022-10-01T05:47:22.985Z,2.70
2022-10-01T05:49:25.421Z,2.03
2022-10-01T05:51:27.495Z,2.50
2022-10-01T05:53:28.914Z,2.85
2022-10-01T05:55:34.866Z,2.40
2022-10-01T05:57:36.583Z,2.63
2022-10-01T05:59:38.390Z,2.75
2022-10-01T06:01:40.185Z,5.05
2022-10-01T06:03:42.826Z,2.65
2022-10-01T06:05:44.847Z,4.00
2022-10-01T06:07:46.555Z,4.32
2022-10-01T06:09:48.149Z,3.40
2022-10-01T06:11:50.021Z,3.58
2022-10-01T06:13:51.528Z,3.00
2022-10-01T06:15:53.129Z,5.57
2022-10-01T06:17:54.954Z,2.53
2022-10-01T06:19:56.512Z,4.10
2022-10-01T06:21:58.041Z,4.85
2022-10-01T06:23:59.996Z,3.97
2022-10-01T06:26:02.266Z,4.22
2022-10-01T06:28:06.016Z,5.00
2022-10-01T06:30:08.137Z,4.75
2022-10-01T06:32:13.590Z,4.05
2022-10-01T06:34:15.114Z,3.40
2022-10-01T06:36:16.714Z,3.58
2022-10-01T06:38:22.203Z,4.15
2022-10-01T06:40:24.286Z,3.13
2022-10-01T06:42:27.445Z,3.45
2022-10-01T06:44:37.575Z,3.65
2022-10-01T06:46:50.077Z,3.40
2022-10-01T06:48:59.961Z,5.03
2022-10-01T06:51:09.634Z,3.03
2022-10-01T06:53:21.488Z,3.05
2022-10-01T06:55:32.601Z,2.85
2022-10-01T06:57:43.965Z,4.88
2022-10-01T06:59:53.895Z,2.60
2022-10-01T07:02:04.403Z,3.80
2022-10-01T07:04:16.715Z,2.85
2022-10-01T07:06:28.142Z,3.53
2022-10-01T07:08:39.337Z,3.53
2022-10-01T07:10:42.139Z,3.75
2022-10-01T07:12:43.895Z,3.83
2022-10-01T07:14:45.455Z,4.13
2022-10-01T07:16:47.211Z,3.50
2022-10-01T07:18:48.876Z,4.55
2022-10-01T07:20:50.574Z,2.75
2022-10-01T07:22:56.785Z,3.28
2022-10-01T07:24:58.276Z,3.55
2022-10-01T07:27:02.642Z,4.97
2022-10-01T07:29:09.743Z,3.63
2022-10-01T07:31:11.740Z,3.47
2022-10-01T07:33:14.090Z,3.88
2022-10-01T07:35:16.447Z,2.72
2022-10-01T07:37:18.193Z,3.05
2022-10-01T07:39:20.470Z,3.42
2022-10-01T07:41:22.236Z,4.10
2022-10-01T07:43:23.914Z,3.78
2022-10-01T07:45:25.855Z,3.78
2022-10-01T07:47:27.396Z,5.15
2022-10-01T07:49:28.923Z,4.53
2022-10-01T07:51:30.591Z,3.72
2022-10-01T07:53:32.516Z,4.90
2022-10-01T07:55:34.288Z,6.45
2022-10-01T07:57:35.745Z,4.55
2022-10-01T07:59:38.479Z,4.18
2022-10-01T08:01:39.988Z,3.67
2022-10-01T08:03:41.414Z,3.33
2022-10-01T08:05:43.437Z,4.05
2022-10-01T08:07:45.450Z,4.28
2022-10-01T08:09:46.953Z,4.03
2022-10-01T08:11:48.880Z,3.92
2022-10-01T08:13:50.495Z,3.97
2022-10-01T08:15:55.148Z,3.67
2022-10-01T08:17:56.894Z,3.58
2022-10-01T08:19:58.342Z,3.80
2022-10-01T08:21:59.824Z,4.82
2022-10-01T08:24:02.666Z,4.72
2022-10-01T08:26:05.603Z,4.35
2022-10-01T08:28:07.863Z,3.55
2022-10-01T08:30:09.591Z,4.03
2022-10-01T08:32:11.257Z,4.28
2022-10-01T08:34:12.770Z,3.63
2022-10-01T08:36:16.987Z,3.65
2022-10-01T08:38:19.830Z,3.88
2022-10-01T08:40:21.756Z,4.15
2022-10-01T08:42:33.352Z,4.20
2022-10-01T08:44:44.031Z,4.28
2022-10-01T08:46:46.250Z,4.03
2022-10-01T08:49:11.302Z,3.78
2022-10-01T08:51:31.730Z,4.47
2022-10-01T08:53:44.424Z,4.63
2022-10-01T08:55:47.087Z,4.20
2022-10-01T08:57:57.190Z,4.05
2022-10-01T08:59:59.555Z,4.03
2022-10-01T09:02:01.113Z,4.22
2022-10-01T09:04:02.606Z,3.92
2022-10-01T09:06:18.575Z,4.35
2022-10-01T09:08:25.929Z,3.80
2022-10-01T09:10:36.996Z,4.93
2022-10-01T09:12:48.491Z,4.32
2022-10-01T09:15:01.452Z,4.05
2022-10-01T09:17:21.475Z,4.55
2022-10-01T09:19:26.044Z,3.95
2022-10-01T09:21:44.191Z,3.90
2022-10-01T09:23:54.247Z,4.07
2022-10-01T09:25:57.443Z,3.95
2022-10-01T09:28:07.404Z,6.20
2022-10-01T09:30:17.846Z,3.30
2022-10-01T09:32:22.464Z,3.88
2022-10-01T09:34:35.376Z,4.15
2022-10-01T09:36:39.638Z,4.10
2022-10-01T09:38:52.544Z,4.65
2022-10-01T09:40:54.910Z,3.83
2022-10-01T09:42:56.502Z,4.65
2022-10-01T09:44:58.212Z,4.53
2022-10-01T09:46:59.883Z,4.32
2022-10-01T09:49:07.461Z,4.78
2022-10-01T09:51:40.031Z,3.95
2022-10-01T09:54:09.350Z,3.97
2022-10-01T09:56:26.370Z,5.63
2022-10-01T09:58:32.432Z,4.13
2022-10-01T10:00:37.807Z,3.75
2022-10-01T10:02:49.295Z,5.05
2022-10-01T10:05:17.360Z,4.07
2022-10-01T10:07:22.232Z,5.97
2022-10-01T10:09:33.973Z,3.47
2022-10-01T10:11:49.935Z,3.05
2022-10-01T10:13:57.964Z,4.82
2022-10-01T10:16:01.157Z,3.92
2022-10-01T10:18:12.202Z,4.78
2022-10-01T10:20:21.118Z,5.05
2022-10-01T10:22:26.565Z,3.40
2022-10-01T10:24:37.132Z,3.33
2022-10-01T10:26:39.994Z,3.25
2022-10-01T10:28:44.244Z,3.97
2022-10-01T10:30:46.330Z,2.60
2022-10-01T10:32:48.092Z,3.17
2022-10-01T10:34:49.914Z,3.03
2022-10-01T10:36:57.072Z,3.65
2022-10-01T10:38:59.244Z,3.45
2022-10-01T10:41:01.719Z,3.75
2022-10-01T10:43:03.564Z,2.95
2022-10-01T10:45:14.135Z,3.25
2022-10-01T10:47:16.939Z,2.65
2022-10-01T10:49:27.998Z,3.08
2022-10-01T10:51:30.197Z,2.38
2022-10-01T10:53:44.997Z,2.78
2022-10-01T10:56:01.245Z,2.88
2022-10-01T10:58:12.601Z,2.88
2022-10-01T11:00:16.544Z,3.67
2022-10-01T11:04:32.131Z,3.10
2022-10-01T11:06:33.822Z,2.55
2022-10-01T11:08:35.908Z,2.97
2022-10-01T11:11:03.729Z,2.97
2022-10-01T11:13:11.538Z,2.95
2022-10-01T11:15:33.774Z,2.75
2022-10-01T11:17:41.224Z,2.90
2022-10-01T11:20:10.890Z,2.92
2022-10-01T11:22:18.692Z,2.25
2022-10-01T11:24:46.371Z,3.10
2022-10-01T11:26:59.197Z,2.70
2022-10-01T11:29:00.807Z,2.63
2022-10-01T11:31:18.074Z,2.83
2022-10-01T11:33:22.555Z,2.55
2022-10-01T11:35:47.717Z,2.40
2022-10-01T11:37:55.104Z,2.50
2022-10-01T11:39:58.857Z,2.00
2022-10-01T11:42:02.666Z,2.33
2022-10-01T11:46:25.380Z,2.20
2022-10-01T11:48:40.439Z,1.90
2022-10-01T11:50:43.888Z,2.97
2022-10-01T11:52:47.965Z,2.60
2022-10-01T11:54:56.320Z,2.63
2022-10-01T11:57:16.897Z,4.40
2022-10-01T11:59:28.399Z,1.95
2022-10-01T12:01:30.146Z,3.63
2022-10-01T12:03:55.150Z,1.92
2022-10-01T12:05:57.370Z,2.35
2022-10-01T12:08:02.409Z,2.42
2022-10-01T12:10:12.754Z,4.72
2022-10-01T12:12:19.307Z,2.47
2022-10-01T12:14:23.492Z,2.25
2022-10-01T12:16:31.177Z,3.45
2022-10-01T12:18:52.949Z,2.10
2022-10-01T12:20:55.834Z,1.83
2022-10-01T12:22:58.423Z,2.13
2022-10-01T12:25:00.180Z,1.75
2022-10-01T12:27:11.725Z,2.45
2022-10-01T12:29:25.484Z,1.63
2022-10-01T12:31:27.161Z,2.10
2022-10-01T12:33:35.675Z,2.03
2022-10-01T12:35:49.000Z,1.80
2022-10-01T12:38:00.528Z,2.37
2022-10-01T12:40:19.415Z,3.33
2022-10-01T12:42:31.258Z,2.20
2022-10-01T12:44:38.051Z,2.28
2022-10-01T12:46:49.785Z,2.38
2022-10-01T12:49:14.111Z,2.33
2022-10-01T12:51:16.005Z,1.55
2022-10-01T12:53:28.303Z,2.45
2022-10-01T12:56:00.472Z,1.83
2022-10-01T12:58:17.506Z,1.73
2022-10-01T13:00:27.275Z,1.80
2022-10-01T13:02:43.445Z,2.35
2022-10-01T13:05:13.153Z,2.15
2022-10-01T13:07:34.094Z,2.10
2022-10-01T13:09:38.427Z,3.47
2022-10-01T13:11:54.509Z,2.20
2022-10-01T13:14:03.632Z,2.60
2022-10-01T13:16:23.616Z,2.47
2022-10-01T13:18:55.236Z,2.67
2022-10-01T13:21:04.600Z,2.90
2022-10-01T13:23:21.963Z,2.65
2022-10-01T13:25:23.658Z,2.00
2022-10-01T13:27:35.978Z,2.13
2022-10-01T13:29:43.175Z,2.80
2022-10-01T13:31:59.635Z,2.00
2022-10-01T13:34:02.766Z,1.80
2022-10-01T13:36:05.557Z,2.17
2022-10-01T13:38:17.538Z,2.58
2022-10-01T13:40:27.796Z,3.08
2022-10-01T13:42:47.882Z,2.00
2022-10-01T13:44:53.708Z,2.50
2022-10-01T13:47:06.022Z,2.20
2022-10-01T13:49:18.278Z,2.30
2022-10-01T13:51:20.361Z,2.28
2022-10-01T13:53:23.216Z,2.70
2022-10-01T13:55:29.107Z,2.00
2022-10-01T13:57:32.880Z,1.85
2022-10-01T13:59:36.650Z,2.13
2022-10-01T14:01:40.230Z,1.40
2022-10-01T14:03:55.880Z,1.85
2022-10-01T14:05:58.932Z,2.25
2022-10-01T14:08:14.698Z,2.07
2022-10-01T14:10:16.636Z,1.98
2022-10-01T14:12:39.141Z,2.65
2022-10-01T14:15:01.414Z,2.90
2022-10-01T14:17:03.381Z,2.05
2022-10-01T14:19:05.000Z,1.95
2022-10-01T14:21:15.782Z,2.28
2022-10-01T14:23:19.419Z,1.75
2022-10-01T14:25:33.001Z,1.95
2022-10-01T14:27:53.019Z,1.38
2022-10-01T14:30:07.149Z,1.88
2022-10-01T14:32:14.785Z,2.10
2022-10-01T14:34:19.008Z,2.20
2022-10-01T14:36:35.266Z,2.95
2022-10-01T14:38:37.182Z,2.53
2022-10-01T14:40:40.175Z,2.10
2022-10-01T14:42:41.661Z,1.30
2022-10-01T14:44:44.426Z,2.35
2022-10-01T14:46:46.031Z,1.88
2022-10-01T14:48:56.434Z,2.00
2022-10-01T14:50:59.157Z,1.70
2022-10-01T14:53:00.963Z,2.28
2022-10-01T14:55:13.088Z,1.55
2022-10-01T14:57:29.426Z,2.47
2022-10-01T14:59:35.455Z,2.70
2022-10-01T15:01:37.359Z,2.10
2022-10-01T15:03:40.087Z,2.60
2022-10-01T15:05:42.355Z,2.58
2022-10-01T15:07:45.978Z,1.92
2022-10-01T15:09:48.261Z,2.40
2022-10-01T15:11:51.118Z,1.88
2022-10-01T15:13:56.558Z,1.95
2022-10-01T15:15:58.118Z,2.00
2022-10-01T15:17:59.763Z,2.20
2022-10-01T15:20:01.571Z,2.03
2022-10-01T15:22:03.379Z,2.20
2022-10-01T15:24:06.591Z,2.00
2022-10-01T15:26:11.434Z,2.40
2022-10-01T15:28:13.715Z,2.30
2022-10-01T15:30:18.196Z,3.13
2022-10-01T15:32:22.426Z,2.45
2022-10-01T15:34:25.690Z,1.42
2022-10-01T15:36:27.619Z,3.47
2022-10-01T15:38:31.282Z,1.92
2022-10-01T15:40:36.532Z,2.58
2022-10-01T15:42:37.960Z,2.03
2022-10-01T15:44:41.354Z,1.70
2022-10-01T15:46:42.813Z,1.50
2022-10-01T15:48:45.091Z,2.13
2022-10-01T15:50:56.690Z,1.70
2022-10-01T15:53:06.317Z,3.92
2022-10-01T15:55:15.422Z,2.65
2022-10-01T15:57:24.659Z,1.70
2022-10-01T15:59:28.550Z,2.17
2022-10-01T16:01:44.250Z,1.88
2022-10-01T16:03:53.769Z,1.80
2022-10-01T16:06:02.500Z,2.88
2022-10-01T16:08:10.454Z,2.13
2022-10-01T16:10:20.963Z,1.70
2022-10-01T16:12:30.543Z,1.90
2022-10-01T16:14:42.017Z,1.92
2022-10-01T16:16:51.534Z,2.13
2022-10-01T16:19:22.222Z,2.55
2022-10-01T16:21:31.924Z,1.38
2022-10-01T16:23:46.701Z,1.50
2022-10-01T16:25:56.571Z,1.85
2022-10-01T16:28:01.267Z,2.55
2022-10-01T16:30:08.803Z,1.63
2022-10-01T16:32:13.527Z,1.83
2022-10-01T16:34:16.578Z,2.15
2022-10-01T16:36:24.275Z,2.00
2022-10-01T16:38:28.259Z,2.20
2022-10-01T16:40:31.457Z,1.48
2022-10-01T16:42:34.181Z,1.85
2022-10-01T16:44:38.218Z,1.65
2022-10-01T16:46:40.000Z,2.42
2022-10-01T16:48:41.784Z,1.63
2022-10-01T16:50:45.603Z,1.70
2022-10-01T16:52:47.668Z,1.98
2022-10-01T16:54:49.177Z,2.17
2022-10-01T16:56:55.258Z,1.30
2022-10-01T16:58:56.828Z,1.23
2022-10-01T17:00:58.785Z,2.08
2022-10-01T17:03:00.343Z,2.50
2022-10-01T17:05:01.839Z,1.50
2022-10-01T17:07:03.663Z,1.88
2022-10-01T17:09:05.159Z,1.65
2022-10-01T17:11:10.612Z,1.70
2022-10-01T17:13:14.934Z,1.38
2022-10-01T17:15:18.151Z,1.63
2022-10-01T17:17:19.750Z,1.70
2022-10-01T17:19:22.215Z,1.58
2022-10-01T17:21:23.764Z,1.73
2022-10-01T17:23:25.356Z,1.67
2022-10-01T17:25:33.357Z,1.50
2022-10-01T17:27:34.886Z,1.92
2022-10-01T17:29:40.275Z,1.77
2022-10-01T17:31:44.954Z,1.27
2022-10-01T17:33:46.476Z,2.22
2022-10-01T17:35:54.645Z,1.75
2022-10-01T17:37:56.250Z,1.83
2022-10-01T17:39:57.788Z,1.55
2022-10-01T17:41:59.367Z,1.40
2022-10-01T17:44:01.340Z,1.50
2022-10-01T17:46:03.101Z,2.10
2022-10-01T17:48:04.912Z,1.35
2022-10-01T17:50:07.057Z,2.10
2022-10-01T17:52:08.870Z,2.70
2022-10-01T17:54:10.320Z,1.63
2022-10-01T17:56:15.988Z,1.67
2022-10-01T17:58:17.508Z,1.30
2022-10-01T18:00:36.707Z,2.15
2022-10-01T18:02:42.915Z,1.85
2022-10-01T18:04:45.917Z,1.88
2022-10-01T18:06:49.475Z,1.55
2022-10-01T18:08:55.509Z,1.70
2022-10-01T18:11:08.070Z,2.55
2022-10-01T18:13:09.633Z,2.03
2022-10-01T18:15:11.239Z,1.20
2022-10-01T18:17:12.711Z,1.70
2022-10-01T18:21:36.039Z,1.23
2022-10-01T18:23:37.560Z,1.33
2022-10-01T18:25:39.044Z,2.47
2022-10-01T18:27:40.565Z,1.80
2022-10-01T18:29:42.325Z,2.65
2022-10-01T18:31:45.127Z,1.73
2022-10-01T18:33:48.776Z,2.83
2022-10-01T18:35:54.528Z,1.90
2022-10-01T18:37:58.043Z,1.17
2022-10-01T18:40:02.953Z,1.92
2022-10-01T18:42:31.031Z,1.67
2022-10-01T18:44:32.645Z,2.22
2022-10-01T18:46:41.304Z,1.95
2022-10-01T18:48:51.680Z,1.98
2022-10-01T18:50:57.025Z,2.25
2022-10-01T18:52:58.580Z,3.60
2022-10-01T18:55:12.587Z,1.65
2022-10-01T18:57:31.581Z,1.50
2022-10-01T18:59:46.449Z,2.13
2022-10-01T19:02:03.102Z,2.28
2022-10-01T19:04:24.628Z,2.67
2022-10-01T19:06:42.418Z,2.40
2022-10-01T19:09:08.036Z,2.00
2022-10-01T19:11:17.962Z,1.77
2022-10-01T19:13:32.561Z,2.63
2022-10-01T19:15:56.322Z,2.35
2022-10-01T19:18:02.077Z,1.98
2022-10-01T19:20:20.974Z,2.40
2022-10-01T19:22:49.023Z,2.22
2022-10-01T19:25:15.181Z,2.13
2022-10-01T19:27:23.436Z,2.35
2022-10-01T19:29:44.216Z,2.03
2022-10-01T19:31:59.011Z,1.30
2022-10-01T19:34:04.978Z,2.40
2022-10-01T19:36:09.944Z,2.15
2022-10-01T19:38:29.903Z,2.95
2022-10-01T19:40:46.325Z,8.00
2022-10-01T19:42:50.916Z,7.88
2022-10-01T19:45:12.638Z,5.28
2022-10-01T19:47:36.279Z,3.72
2022-10-01T19:49:38.539Z,2.42
2022-10-01T19:51:45.392Z,2.67
2022-10-01T19:53:50.209Z,3.35
2022-10-01T19:55:52.542Z,3.03
2022-10-01T19:57:54.170Z,2.03
2022-10-01T19:59:59.664Z,3.22
2022-10-01T20:02:06.726Z,2.33
2022-10-01T20:04:14.651Z,3.42
2022-10-01T20:06:28.592Z,2.10
2022-10-01T20:08:30.066Z,4.35
2022-10-01T20:10:41.491Z,3.05
2022-10-01T20:13:01.754Z,2.60
2022-10-01T20:15:09.737Z,2.28
2022-10-01T20:17:16.454Z,2.65
2022-10-01T20:19:30.950Z,3.17
2022-10-01T20:21:43.945Z,3.75
2022-10-01T20:24:01.417Z,3.28
2022-10-01T20:26:25.979Z,3.38
2022-10-01T20:28:30.562Z,2.80
2022-10-01T20:30:36.347Z,4.03
2022-10-01T20:32:56.125Z,4.28
2022-10-01T20:35:22.182Z,3.13
2022-10-01T20:39:28.536Z,3.95
2022-10-01T20:41:32.205Z,3.28
2022-10-01T20:43:44.593Z,2.70
2022-10-01T20:45:47.382Z,3.25
2022-10-01T20:47:54.027Z,2.90
2022-10-01T20:50:01.355Z,3.20
2022-10-01T20:52:21.760Z,3.67
2022-10-01T20:54:25.337Z,4.00
2022-10-01T20:56:36.606Z,2.75
2022-10-01T20:58:44.657Z,4.38
2022-10-01T21:00:46.928Z,2.55
2022-10-01T21:02:51.860Z,3.10
2022-10-01T21:05:02.012Z,3.65
2022-10-01T21:07:23.307Z,3.22
2022-10-01T21:09:28.934Z,3.20
2022-10-01T21:11:30.633Z,5.05
2022-10-01T21:13:35.783Z,4.32
2022-10-01T21:15:43.602Z,4.07
2022-10-01T21:18:11.240Z,4.10
2022-10-01T21:20:14.081Z,4.95
2022-10-01T21:22:27.624Z,3.50
2022-10-01T21:24:31.651Z,3.83
2022-10-01T21:28:37.131Z,4.70
2022-10-01T21:30:57.349Z,3.60
2022-10-01T21:33:02.633Z,4.50
2022-10-01T21:35:24.486Z,3.90
2022-10-01T21:37:29.251Z,4.28
2022-10-01T21:39:41.343Z,4.35
2022-10-01T21:41:58.667Z,4.72
2022-10-01T21:44:00.622Z,4.35
2022-10-01T21:46:20.943Z,3.45
2022-10-01T21:48:25.483Z,4.50
2022-10-01T21:50:35.115Z,4.55
2022-10-01T21:52:45.758Z,3.53
2022-10-01T21:54:50.637Z,3.72
2022-10-01T21:56:55.051Z,3.58
2022-10-01T21:58:56.561Z,3.60
2022-10-01T22:01:08.396Z,3.55
2022-10-01T22:03:10.208Z,4.72
2022-10-01T22:05:24.870Z,4.85
2022-10-01T22:07:32.282Z,2.72
2022-10-01T22:09:40.664Z,3.50
2022-10-01T22:11:47.223Z,2.97
2022-10-01T22:14:02.625Z,2.90
2022-10-01T22:16:13.939Z,4.03
2022-10-01T22:18:27.304Z,2.95
2022-10-01T22:20:37.417Z,2.92
2022-10-01T22:22:43.713Z,2.35
2022-10-01T22:24:57.118Z,3.90
2022-10-01T22:27:14.743Z,2.13
2022-10-01T22:29:26.565Z,3.38
2022-10-01T22:31:39.586Z,3.45
2022-10-01T22:34:00.398Z,2.92
2022-10-01T22:36:27.259Z,4.50
2022-10-01T22:38:30.210Z,1.73
2022-10-01T22:40:34.814Z,2.83
2022-10-01T22:42:40.979Z,2.35
2022-10-01T22:44:42.550Z,2.08
2022-10-01T22:47:22.906Z,1.70
2022-10-01T22:49:24.438Z,2.55
2022-10-01T22:51:35.034Z,2.38
2022-10-01T22:53:51.511Z,3.65
2022-10-01T22:55:53.222Z,1.95
2022-10-01T22:57:54.722Z,2.28
2022-10-01T22:59:59.639Z,2.10
2022-10-01T23:02:19.955Z,2.10
2022-10-01T23:04:33.019Z,1.77
2022-10-01T23:06:37.991Z,2.33
2022-10-01T23:09:06.048Z,1.60
2022-10-01T23:11:23.713Z,2.20
2022-10-01T23:13:28.014Z,2.45
2022-10-01T23:15:36.183Z,2.33
2022-10-01T23:17:41.356Z,1.83
2022-10-01T23:20:08.879Z,2.15
2022-10-01T23:22:35.046Z,2.55
2022-10-01T23:24:50.573Z,1.92
2022-10-01T23:26:57.590Z,2.20
2022-10-01T23:29:20.389Z,2.53
2022-10-01T23:31:27.149Z,2.15
2022-10-01T23:33:35.056Z,2.60
2022-10-01T23:35:40.355Z,1.48
2022-10-01T23:38:04.812Z,1.80
2022-10-01T23:40:11.243Z,4.13
2022-10-01T23:42:28.172Z,1.60
2022-10-01T23:44:29.686Z,1.80
2022-10-01T23:46:32.106Z,2.78
2022-10-01T23:48:33.677Z,1.77
2022-10-01T23:50:41.083Z,2.08
2022-10-01T23:52:45.386Z,1.80
2022-10-01T23:54:46.920Z,2.22
2022-10-01T23:56:51.098Z,2.45
2022-10-01T23:59:10.651Z,1.92
